createdAt,value
2023-05-14T00:00:32.353Z,16.75
2023-05-14T00:03:56.525Z,16.75
2023-05-14T00:07:00.500Z,18.25
2023-05-14T00:10:04.592Z,15.75
2023-05-14T00:13:08.207Z,17.00
2023-05-14T00:16:13.649Z,18.00
2023-05-14T00:19:18.895Z,18.25
2023-05-14T00:22:22.901Z,20.75
2023-05-14T00:25:26.585Z,21.00
2023-05-14T00:28:33.004Z,20.50
2023-05-14T00:31:37.925Z,17.50
2023-05-14T00:34:41.807Z,19.00
2023-05-14T00:37:46.508Z,13.25
2023-05-14T00:40:52.121Z,15.75
2023-05-14T00:43:55.627Z,19.33
2023-05-14T00:47:01.904Z,17.75
2023-05-14T00:50:06.552Z,18.50
2023-05-14T00:53:11.474Z,18.50
2023-05-14T00:56:16.665Z,20.50
2023-05-14T00:59:20.741Z,19.25
2023-05-14T01:02:25.807Z,16.50
2023-05-14T01:05:36.760Z,17.00
2023-05-14T01:08:50.819Z,18.50
2023-05-14T01:12:02.296Z,21.00
2023-05-14T01:15:12.552Z,20.75
2023-05-14T01:18:20.324Z,16.50
2023-05-14T01:21:38.813Z,20.75
2023-05-14T01:24:42.597Z,18.00
2023-05-14T01:27:54.351Z,21.50
2023-05-14T01:31:03.602Z,17.25
2023-05-14T01:34:08.088Z,20.75
2023-05-14T01:37:14.100Z,17.00
2023-05-14T01:40:38.039Z,24.00
2023-05-14T01:43:42.615Z,19.25
2023-05-14T01:46:46.105Z,18.00
2023-05-14T01:49:50.249Z,19.75
2023-05-14T01:52:56.719Z,25.25
2023-05-14T01:56:00.824Z,22.50
2023-05-14T01:59:04.629Z,20.50
2023-05-14T02:02:08.623Z,22.25
2023-05-14T02:05:13.589Z,19.75
2023-05-14T02:08:19.168Z,18.75
2023-05-14T02:11:22.778Z,19.75
2023-05-14T02:14:26.571Z,19.50
2023-05-14T02:17:30.055Z,19.25
2023-05-14T02:20:33.944Z,19.75
2023-05-14T02:23:42.062Z,20.75
2023-05-14T02:26:46.817Z,20.00
2023-05-14T02:29:50.436Z,22.25
2023-05-14T02:32:54.446Z,20.00
2023-05-14T02:35:58.101Z,19.75
2023-05-14T02:39:04.770Z,21.75
2023-05-14T02:42:08.872Z,20.50
2023-05-14T02:45:12.955Z,20.25
2023-05-14T02:48:16.835Z,20.75
2023-05-14T02:51:21.298Z,22.50
2023-05-14T02:54:26.394Z,24.50
2023-05-14T02:57:30.285Z,22.50
2023-05-14T03:00:33.888Z,17.50
2023-05-14T03:03:38.388Z,18.25
2023-05-14T03:06:42.657Z,21.25
2023-05-14T03:09:48.427Z,20.00
2023-05-14T03:12:52.094Z,22.00
2023-05-14T03:15:56.963Z,19.50
2023-05-14T03:19:00.759Z,23.25
2023-05-14T03:22:05.222Z,16.50
2023-05-14T03:25:10.929Z,17.00
2023-05-14T03:28:15.091Z,21.75
2023-05-14T03:31:18.891Z,19.00
2023-05-14T03:34:23.149Z,21.50
2023-05-14T03:37:27.146Z,16.50
2023-05-14T03:40:32.396Z,18.25
2023-05-14T03:43:36.327Z,19.50
2023-05-14T03:46:40.399Z,20.00
2023-05-14T03:49:44.013Z,23.50
2023-05-14T03:52:50.960Z,17.75
2023-05-14T03:55:55.780Z,20.00
2023-05-14T03:58:59.542Z,17.00
2023-05-14T04:02:03.274Z,21.75
2023-05-14T04:05:07.908Z,14.75
2023-05-14T04:08:11.580Z,18.50
2023-05-14T04:11:17.061Z,15.75
2023-05-14T04:14:20.732Z,20.00
2023-05-14T04:17:25.767Z,15.75
2023-05-14T04:20:29.397Z,17.00
2023-05-14T04:23:33.341Z,17.00
2023-05-14T04:26:38.197Z,17.00
2023-05-14T04:29:42.171Z,15.00
2023-05-14T04:32:45.699Z,13.50
2023-05-14T04:35:49.701Z,17.25
2023-05-14T04:38:53.192Z,19.50
2023-05-14T04:41:58.666Z,19.75
2023-05-14T04:45:02.244Z,16.75
2023-05-14T04:48:07.912Z,17.00
2023-05-14T04:51:11.610Z,15.25
2023-05-14T04:54:15.833Z,16.00
2023-05-14T04:57:21.182Z,17.00
2023-05-14T05:00:25.406Z,14.75
2023-05-14T05:03:29.484Z,15.00
2023-05-14T05:06:34.017Z,17.25
2023-05-14T05:09:37.663Z,16.75
2023-05-14T05:12:43.277Z,14.25
2023-05-14T05:16:36.990Z,17.00
2023-05-14T05:19:44.199Z,16.25
2023-05-14T05:22:48.288Z,16.00
2023-05-14T05:25:52.090Z,15.00
2023-05-14T05:28:57.148Z,17.00
2023-05-14T05:32:01.424Z,14.00
2023-05-14T05:35:05.219Z,19.50
2023-05-14T05:38:09.510Z,14.50
2023-05-14T05:41:13.431Z,14.25
2023-05-14T05:44:23.223Z,17.75
2023-05-14T05:47:30.246Z,17.00
2023-05-14T05:50:34.252Z,17.00
2023-05-14T05:53:37.849Z,19.75
2023-05-14T05:56:41.809Z,16.75
2023-05-14T05:59:46.634Z,16.75
2023-05-14T06:02:50.650Z,14.25
2023-05-14T06:05:54.282Z,18.75
2023-05-14T06:08:58.031Z,17.67
2023-05-14T06:12:01.560Z,16.50
2023-05-14T06:15:08.286Z,10.00
2023-05-14T06:18:12.186Z,14.75
2023-05-14T06:21:16.095Z,13.50
2023-05-14T06:24:20.128Z,15.50
2023-05-14T06:27:32.204Z,17.00
2023-05-14T06:34:40.241Z,17.75
2023-05-14T06:37:53.065Z,12.25
2023-05-14T06:41:03.747Z,8.50
2023-05-14T06:44:08.645Z,14.50
2023-05-14T06:47:14.317Z,11.50
2023-05-14T06:50:18.733Z,12.00
2023-05-14T06:53:22.670Z,10.00
2023-05-14T06:56:26.910Z,12.75
2023-05-14T06:59:32.086Z,11.00
2023-05-14T07:02:38.482Z,9.75
2023-05-14T07:11:16.265Z,13.25
2023-05-14T07:14:20.543Z,13.75
2023-05-14T07:17:50.900Z,17.00
2023-05-14T07:20:55.554Z,9.25
2023-05-14T07:23:59.517Z,8.75
2023-05-14T07:27:03.632Z,14.25
2023-05-14T07:30:09.491Z,17.50
2023-05-14T07:33:14.560Z,11.00
2023-05-14T07:36:18.686Z,14.00
2023-05-14T07:39:22.917Z,15.25
2023-05-14T07:42:35.790Z,12.00
2023-05-14T07:45:40.553Z,12.00
2023-05-14T07:48:45.918Z,3.50
2023-05-14T07:51:49.570Z,12.00
2023-05-14T07:54:53.971Z,6.00
2023-05-14T07:57:57.547Z,10.00
2023-05-14T08:01:02.334Z,11.50
2023-05-14T08:04:08.992Z,9.00
2023-05-14T08:07:15.602Z,15.00
2023-05-14T08:10:19.175Z,11.25
2023-05-14T08:13:23.908Z,13.33
2023-05-14T08:16:27.830Z,11.00
2023-05-14T08:19:34.282Z,11.00
2023-05-14T08:22:38.146Z,9.33
2023-05-14T08:25:42.656Z,11.33
2023-05-14T08:28:46.560Z,8.00
2023-05-14T08:31:52.396Z,10.00
2023-05-14T08:34:57.517Z,8.33
2023-05-14T08:38:01.586Z,4.33
2023-05-14T08:41:07.612Z,5.33
2023-05-14T08:44:15.018Z,4.67
2023-05-14T08:47:20.841Z,5.67
2023-05-14T08:50:28.251Z,10.00
2023-05-14T08:53:32.752Z,6.33
2023-05-14T08:56:38.654Z,7.00
2023-05-14T08:59:42.967Z,6.00
2023-05-14T09:02:49.031Z,4.00
2023-05-14T09:05:55.071Z,6.67
2023-05-14T09:08:59.349Z,7.00
2023-05-14T09:12:03.217Z,9.00
2023-05-14T09:15:08.885Z,6.00
2023-05-14T09:18:12.944Z,6.67
2023-05-14T09:21:19.484Z,5.00
2023-05-14T09:24:25.442Z,4.00
2023-05-14T09:27:32.068Z,6.00
2023-05-14T09:30:37.420Z,4.00
2023-05-14T09:33:41.469Z,5.00
2023-05-14T09:36:46.822Z,6.00
2023-05-14T09:39:54.093Z,6.33
2023-05-14T09:43:01.927Z,4.67
2023-05-14T09:46:06.136Z,7.33
2023-05-14T09:49:10.811Z,8.33
2023-05-14T09:52:16.675Z,8.67
2023-05-14T09:55:22.751Z,6.33
2023-05-14T09:58:30.507Z,7.00
2023-05-14T10:01:34.063Z,7.33
2023-05-14T10:04:39.272Z,7.00
2023-05-14T10:08:05.251Z,6.00
2023-05-14T10:11:15.593Z,8.33
2023-05-14T10:14:26.083Z,7.00
2023-05-14T10:17:33.770Z,5.33
2023-05-14T10:20:39.068Z,4.67
2023-05-14T10:23:45.718Z,5.00
2023-05-14T10:26:50.294Z,6.33
2023-05-14T10:29:56.342Z,6.33
2023-05-14T10:33:11.034Z,7.33
2023-05-14T10:36:15.310Z,7.00
2023-05-14T10:39:20.309Z,5.67
2023-05-14T10:42:27.501Z,5.67
2023-05-14T10:45:34.589Z,4.00
2023-05-14T10:48:40.365Z,4.33
2023-05-14T10:51:44.149Z,5.00
2023-05-14T10:54:52.933Z,4.00
2023-05-14T10:58:02.524Z,7.67
2023-05-14T11:01:08.572Z,5.00
2023-05-14T11:04:20.008Z,4.33
2023-05-14T11:07:26.261Z,5.00
2023-05-14T11:10:32.668Z,4.33
2023-05-14T11:13:37.890Z,4.00
2023-05-14T11:16:43.904Z,4.00
2023-05-14T11:19:49.738Z,7.67
2023-05-14T11:22:55.800Z,5.00
2023-05-14T11:26:03.773Z,5.00
2023-05-14T11:29:07.639Z,5.67
2023-05-14T11:32:12.458Z,6.00
2023-05-14T11:35:16.776Z,3.67
2023-05-14T11:38:22.465Z,5.33
2023-05-14T11:41:28.271Z,5.67
2023-05-14T11:44:32.834Z,6.00
2023-05-14T11:47:36.543Z,7.00
2023-05-14T11:50:41.661Z,5.33
2023-05-14T11:53:47.194Z,5.33
2023-05-14T11:56:53.105Z,6.00
2023-05-14T11:59:59.931Z,5.00
2023-05-14T12:03:05.019Z,6.33
2023-05-14T12:06:11.368Z,6.00
2023-05-14T12:09:24.952Z,4.33
2023-05-14T12:12:36.503Z,7.33
2023-05-14T12:15:41.195Z,7.00
2023-05-14T12:18:46.194Z,6.00
2023-05-14T12:21:53.301Z,6.00
2023-05-14T12:24:57.967Z,9.00
2023-05-14T12:28:15.579Z,9.00
2023-05-14T12:31:19.355Z,7.33
2023-05-14T12:34:23.330Z,7.00
2023-05-14T12:37:27.675Z,6.33
2023-05-14T12:40:33.143Z,9.33
2023-05-14T12:43:38.598Z,1.67
2023-05-14T12:46:45.491Z,7.00
2023-05-14T12:49:52.073Z,7.67
2023-05-14T12:52:56.169Z,10.00
2023-05-14T12:56:01.040Z,7.00
2023-05-14T12:59:07.125Z,8.33
2023-05-14T13:02:10.930Z,12.00
2023-05-14T13:05:15.078Z,9.00
2023-05-14T13:08:21.535Z,10.33
2023-05-14T13:11:25.833Z,8.00
2023-05-14T13:14:31.020Z,8.00
2023-05-14T13:17:35.472Z,9.00
2023-05-14T13:20:39.965Z,6.67
2023-05-14T13:23:45.713Z,7.33
2023-05-14T13:26:49.439Z,9.00
2023-05-14T13:29:54.752Z,10.67
2023-05-14T13:32:59.267Z,11.00
2023-05-14T13:36:04.465Z,8.33
2023-05-14T13:39:07.992Z,9.67
2023-05-14T13:42:13.159Z,8.33
2023-05-14T13:45:18.285Z,8.67
2023-05-14T13:48:22.633Z,11.00
2023-05-14T13:51:26.298Z,9.00
2023-05-14T13:54:30.411Z,11.00
2023-05-14T13:57:34.592Z,9.00
2023-05-14T14:00:41.640Z,10.33
2023-05-14T14:03:45.222Z,11.00
2023-05-14T14:06:49.375Z,10.00
2023-05-14T14:09:53.135Z,9.67
2023-05-14T14:12:57.232Z,9.00
2023-05-14T14:16:03.217Z,11.00
2023-05-14T14:19:09.929Z,8.00
2023-05-14T14:22:16.417Z,11.00
2023-05-14T14:25:28.238Z,10.00
2023-05-14T14:28:32.386Z,11.00
2023-05-14T14:31:37.914Z,13.33
2023-05-14T14:34:41.632Z,12.33
2023-05-14T14:37:49.318Z,8.67
2023-05-14T14:40:53.095Z,9.33
2023-05-14T14:43:57.490Z,12.00
2023-05-14T14:47:02.534Z,10.33
2023-05-14T14:50:08.063Z,11.00
2023-05-14T14:53:11.849Z,11.33
2023-05-14T14:56:16.060Z,12.00
2023-05-14T14:59:19.777Z,13.67
2023-05-14T15:02:29.582Z,12.33
2023-05-14T15:05:34.714Z,11.00
2023-05-14T15:08:39.438Z,10.67
2023-05-14T15:11:43.057Z,11.33
2023-05-14T15:14:47.179Z,12.00
2023-05-14T15:17:52.453Z,11.00
2023-05-14T15:20:57.744Z,10.33
2023-05-14T15:24:01.175Z,11.00
2023-05-14T15:27:07.626Z,12.33
2023-05-14T15:30:12.468Z,10.67
2023-05-14T15:33:19.567Z,11.33
2023-05-14T15:36:23.333Z,12.00
2023-05-14T15:39:28.028Z,9.67
2023-05-14T15:42:33.173Z,13.00
2023-05-14T15:45:37.254Z,12.67
2023-05-14T15:48:45.420Z,9.33
2023-05-14T15:51:51.076Z,10.67
2023-05-14T15:54:56.258Z,13.00
2023-05-14T15:58:00.681Z,11.00
2023-05-14T16:01:04.376Z,12.00
2023-05-14T16:04:10.179Z,14.67
2023-05-14T16:07:14.792Z,19.33
2023-05-14T16:10:22.963Z,11.00
2023-05-14T16:13:27.412Z,12.67
2023-05-14T16:16:31.992Z,14.00
2023-05-14T16:19:37.064Z,19.67
2023-05-14T16:22:41.237Z,13.67
2023-05-14T16:25:51.036Z,15.00
2023-05-14T16:28:55.025Z,16.33
2023-05-14T16:31:58.792Z,17.00
2023-05-14T16:35:04.551Z,15.00
2023-05-14T16:38:09.190Z,19.00
2023-05-14T16:41:13.538Z,23.00
2023-05-14T16:44:18.166Z,32.33
2023-05-14T16:47:22.047Z,14.67
2023-05-14T16:50:27.597Z,12.67
2023-05-14T16:53:31.716Z,12.67
2023-05-14T16:56:35.182Z,12.00
2023-05-14T16:59:39.346Z,11.00
2023-05-14T17:02:43.672Z,13.00
2023-05-14T17:05:51.777Z,17.67
2023-05-14T17:08:56.658Z,28.00
2023-05-14T17:12:00.743Z,14.33
2023-05-14T17:15:05.673Z,15.33
2023-05-14T17:18:12.158Z,16.33
2023-05-14T17:21:17.603Z,21.33
2023-05-14T17:24:21.738Z,28.33
2023-05-14T17:27:26.404Z,23.67
2023-05-14T17:30:30.845Z,15.00
2023-05-14T17:33:35.658Z,20.00
2023-05-14T17:36:43.110Z,19.33
2023-05-14T17:39:46.936Z,11.67
2023-05-14T17:42:50.477Z,11.67
2023-05-14T17:45:54.986Z,14.00
2023-05-14T17:48:59.445Z,17.00
2023-05-14T17:52:04.941Z,25.00
2023-05-14T17:55:09.433Z,32.50
2023-05-14T17:58:16.317Z,40.25
2023-05-14T18:01:20.473Z,15.33
2023-05-14T18:04:24.376Z,21.00
2023-05-14T18:07:29.847Z,18.33
2023-05-14T18:10:33.768Z,19.00
2023-05-14T18:13:37.337Z,18.00
2023-05-14T18:16:41.395Z,22.67
2023-05-14T18:19:53.249Z,21.00
2023-05-14T18:22:58.708Z,18.67
2023-05-14T18:26:02.830Z,22.33
2023-05-14T18:29:07.544Z,19.00
2023-05-14T18:32:11.130Z,16.00
2023-05-14T18:35:15.156Z,15.67
2023-05-14T18:38:20.073Z,15.67
2023-05-14T18:41:25.765Z,12.33
2023-05-14T18:44:29.325Z,14.00
2023-05-14T18:47:34.223Z,14.00
2023-05-14T18:50:42.289Z,14.00
2023-05-14T18:53:48.343Z,13.00
2023-05-14T18:56:52.281Z,13.00
2023-05-14T18:59:58.301Z,13.33
2023-05-14T19:03:03.620Z,12.33
2023-05-14T19:06:09.096Z,17.33
2023-05-14T19:09:31.087Z,18.00
2023-05-14T19:15:54.150Z,17.67
2023-05-14T19:18:59.557Z,12.33
2023-05-14T19:25:52.034Z,14.33
2023-05-14T19:29:13.398Z,14.33
2023-05-14T19:32:36.433Z,14.67
2023-05-14T19:35:41.448Z,11.00
2023-05-14T19:38:57.984Z,16.00
2023-05-14T19:42:05.365Z,19.67
2023-05-14T19:45:10.468Z,18.00
2023-05-14T19:48:16.082Z,18.67
2023-05-14T19:51:22.788Z,21.67
2023-05-14T19:54:26.860Z,20.67
2023-05-14T19:57:35.774Z,11.00
2023-05-14T20:00:39.985Z,22.00
2023-05-14T20:03:43.838Z,18.67
2023-05-14T20:06:53.847Z,21.00
2023-05-14T20:09:58.147Z,19.00
2023-05-14T20:13:03.716Z,18.33
2023-05-14T20:16:18.005Z,20.67
2023-05-14T20:19:22.511Z,16.00
2023-05-14T20:22:26.755Z,17.00
2023-05-14T20:25:35.637Z,18.00
2023-05-14T20:28:43.522Z,18.33
2023-05-14T20:31:48.793Z,16.00
2023-05-14T20:34:52.384Z,23.67
2023-05-14T20:38:01.088Z,36.50
2023-05-14T20:41:07.937Z,36.00
2023-05-14T20:44:13.324Z,28.75
2023-05-14T20:47:21.664Z,27.00
2023-05-14T20:50:39.340Z,18.25
2023-05-14T20:53:42.955Z,18.67
2023-05-14T20:56:50.481Z,19.00
2023-05-14T21:00:24.994Z,20.67
2023-05-14T21:03:31.659Z,17.00
2023-05-14T21:06:35.993Z,25.25
2023-05-14T21:09:40.266Z,16.67
2023-05-14T21:12:44.907Z,14.00
2023-05-14T21:15:50.774Z,16.00
2023-05-14T21:18:55.240Z,13.00
2023-05-14T21:21:59.216Z,13.67
2023-05-14T21:28:30.152Z,17.67
2023-05-14T21:31:36.318Z,17.67
2023-05-14T21:34:40.504Z,18.00
2023-05-14T21:37:44.775Z,22.00
2023-05-14T21:40:49.681Z,29.50
2023-05-14T21:43:53.413Z,22.00
2023-05-14T21:46:58.699Z,26.75
2023-05-14T21:50:02.152Z,20.00
2023-05-14T21:53:07.555Z,14.00
2023-05-14T21:56:11.241Z,9.33
2023-05-14T21:59:15.247Z,15.67
2023-05-14T22:02:20.389Z,12.67
2023-05-14T22:05:26.039Z,14.00
2023-05-14T22:08:30.805Z,18.33
2023-05-14T22:11:34.689Z,16.00
2023-05-14T22:14:38.695Z,17.00
2023-05-14T22:17:44.134Z,13.33
2023-05-14T22:20:47.770Z,10.67
2023-05-14T22:23:52.139Z,9.33
2023-05-14T22:26:55.836Z,11.67
2023-05-14T22:29:59.857Z,14.67
2023-05-14T22:33:05.012Z,14.67
2023-05-14T22:36:10.606Z,14.33
2023-05-14T22:39:14.261Z,12.33
2023-05-14T22:42:20.306Z,12.67
2023-05-14T22:45:24.183Z,12.67
2023-05-14T22:48:29.804Z,9.33
2023-05-14T22:51:33.688Z,16.00
2023-05-14T22:54:37.699Z,14.00
2023-05-14T22:57:41.373Z,13.00
2023-05-14T23:00:47.984Z,11.00
2023-05-14T23:03:52.876Z,15.67
2023-05-14T23:06:57.080Z,14.00
2023-05-14T23:10:00.871Z,13.67
2023-05-14T23:13:05.466Z,13.00
2023-05-14T23:16:09.349Z,19.00
2023-05-14T23:19:14.917Z,16.25
2023-05-14T23:22:18.841Z,14.00
2023-05-14T23:25:23.136Z,17.00
2023-05-14T23:28:27.243Z,20.75
2023-05-14T23:31:31.507Z,17.00
2023-05-14T23:34:36.530Z,14.00
2023-05-14T23:37:47.093Z,12.33
2023-05-14T23:40:50.900Z,14.67
2023-05-14T23:43:55.461Z,16.00
2023-05-14T23:46:59.415Z,18.00
2023-05-14T23:50:05.665Z,15.25
2023-05-14T23:53:09.573Z,12.75
2023-05-14T23:56:13.895Z,13.75
2023-05-14T23:59:17.515Z,13.00
